PWSweather.com
Personal Weather Stations
Station Observations
LOBIOS
Galicia, LobiosES

GaliciaLobiosES

Lat: 41.895, Lon: -8.091667

Elevation: 1597

Station Type: Automática/Davis Vantage Pro2 Plus

www.meteolobios.es

High Low Average
Temperature 49.0°F9.4°C 38.1°F3.4°C 44.6°F7.0°C
Dew Point 47.6°F8.7°C 36.0°F2.2°C 42.5°F5.8°C
Winds 8.1 mph 13.0 kmh Calm Calm 3.0 mph SSW4.8 kmh SSW
Wind Gusts 15.0 mph24.1 kmh -- 4.0 mph6.4 kmh
Humidity 96% 81% 92%
Pressure 30.31 in1026.4 mb 30.12 in1020.0 mb -
Precipitation 0.56 in14.2 mm - -
Hour Temp Dew Point Humidity Winds Wind Gusts Pressure Precip Precip Rate Daily Precip Total
12:00 AM 48.7°F9.3°C 47.1°F8.4°C 94% 5.8 mph SW9.3 kmh SW 15.0 mph24.1 kmh 30.24 in1024.0 mb - 0.00 in0.0 mm 0.00 in0.0 mm
12:10 AM 48.7°F9.3°C 47.1°F8.4°C 94% 8.1 mph SW13.0 kmh SW 12.7 mph20.4 kmh 30.24 in1024.0 mb - 0.00 in0.0 mm 0.00 in0.0 mm
12:20 AM 48.7°F9.3°C 47.1°F8.4°C 94% 6.9 mph SW11.1 kmh SW 13.8 mph22.2 kmh 30.24 in1024.0 mb - 0.00 in0.0 mm 0.00 in0.0 mm
12:30 AM 48.8°F9.3°C 47.1°F8.4°C 94% 5.8 mph W9.3 kmh W 9.2 mph14.8 kmh 30.23 in1023.7 mb - 0.01 in0.3 mm 0.01 in0.3 mm
12:40 AM 48.8°F9.3°C 47.4°F8.6°C 95% 4.6 mph WSW7.4 kmh WSW 10.4 mph16.7 kmh 30.23 in1023.7 mb - 0.00 in0.0 mm 0.01 in0.3 mm
12:50 AM 48.8°F9.3°C 47.4°F8.6°C 95% 8.1 mph WSW13.0 kmh WSW 11.5 mph18.5 kmh 30.22 in1023.4 mb - 0.00 in0.0 mm 0.01 in0.3 mm
01:00 AM 48.8°F9.3°C 47.4°F8.6°C 95% 5.8 mph SW9.3 kmh SW 9.2 mph14.8 kmh 30.21 in1023.0 mb - 0.00 in0.0 mm 0.01 in0.3 mm
01:10 AM 48.8°F9.3°C 47.4°F8.6°C 95% 8.1 mph SW13.0 kmh SW 9.2 mph14.8 kmh 30.21 in1023.0 mb - 0.00 in0.0 mm 0.01 in0.3 mm
01:20 AM 48.8°F9.3°C 47.4°F8.6°C 95% 3.5 mph WSW5.6 kmh WSW 10.4 mph16.7 kmh 30.21 in1023.0 mb - 0.01 in0.3 mm 0.02 in0.5 mm
01:30 AM 48.8°F9.3°C 47.4°F8.6°C 95% 4.6 mph SW7.4 kmh SW 11.5 mph18.5 kmh 30.20 in1022.7 mb - 0.00 in0.0 mm 0.02 in0.5 mm
01:40 AM 48.8°F9.3°C 47.4°F8.6°C 95% 5.8 mph WSW9.3 kmh WSW 11.5 mph18.5 kmh 30.19 in1022.4 mb - 0.00 in0.0 mm 0.02 in0.5 mm
01:50 AM 48.7°F9.3°C 47.3°F8.5°C 95% 6.9 mph WSW11.1 kmh WSW 10.4 mph16.7 kmh 30.18 in1022.0 mb - 0.00 in0.0 mm 0.02 in0.5 mm
02:00 AM 48.7°F9.3°C 47.3°F8.5°C 95% 4.6 mph W7.4 kmh W 6.9 mph11.1 kmh 30.18 in1022.0 mb - 0.01 in0.3 mm 0.02 in0.5 mm
02:10 AM 48.7°F9.3°C 47.3°F8.5°C 95% 4.6 mph SW7.4 kmh SW 8.1 mph13.0 kmh 30.18 in1022.0 mb - 0.00 in0.0 mm 0.02 in0.5 mm
02:20 AM 48.7°F9.3°C 47.3°F8.5°C 95% 5.8 mph W9.3 kmh W 8.1 mph13.0 kmh 30.17 in1021.7 mb - 0.00 in0.0 mm 0.02 in0.5 mm
02:30 AM 48.7°F9.3°C 47.3°F8.5°C 95% 1.1 mph S1.8 kmh S 1.1 mph1.8 kmh 30.16 in1021.3 mb - 0.00 in0.0 mm 0.02 in0.5 mm
02:40 AM 48.7°F9.3°C 47.3°F8.5°C 95% 5.8 mph SW9.3 kmh SW 8.1 mph13.0 kmh 30.15 in1021.0 mb - 0.00 in0.0 mm 0.02 in0.5 mm
02:50 AM 48.6°F9.2°C 47.3°F8.5°C 95% 4.6 mph W7.4 kmh W 9.2 mph14.8 kmh 30.14 in1020.7 mb - 0.00 in0.0 mm 0.02 in0.5 mm
03:00 AM 48.7°F9.3°C 47.3°F8.5°C 95% 2.3 mph W3.7 kmh W 4.6 mph7.4 kmh 30.15 in1021.0 mb - 0.00 in0.0 mm 0.02 in0.5 mm
03:10 AM 48.7°F9.3°C 47.3°F8.5°C 95% 2.3 mph W3.7 kmh W 3.5 mph5.6 kmh 30.15 in1021.0 mb - 0.02 in0.5 mm 0.04 in1.0 mm
03:20 AM 48.8°F9.3°C 47.4°F8.6°C 95% 3.5 mph SW5.6 kmh SW 6.9 mph11.1 kmh 30.16 in1021.3 mb - 0.04 in1.0 mm 0.08 in2.0 mm
03:30 AM 48.9°F9.4°C 47.5°F8.6°C 95% 3.5 mph WSW5.6 kmh WSW 6.9 mph11.1 kmh 30.16 in1021.3 mb - 0.04 in1.0 mm 0.11 in2.8 mm
03:40 AM 49.0°F9.4°C 47.6°F8.7°C 95% 4.6 mph WSW7.4 kmh WSW 9.2 mph14.8 kmh 30.15 in1021.0 mb - 0.01 in0.3 mm 0.12 in3.0 mm
03:50 AM 49.0°F9.4°C 47.6°F8.7°C 95% 1.1 mph SW1.8 kmh SW 5.8 mph9.3 kmh 30.16 in1021.3 mb - 0.02 in0.5 mm 0.14 in3.6 mm
04:00 AM 49.0°F9.4°C 47.6°F8.7°C 95% 2.3 mph WSW3.7 kmh WSW 4.6 mph7.4 kmh 30.16 in1021.3 mb - 0.03 in0.8 mm 0.17 in4.3 mm
04:10 AM 48.9°F9.4°C 47.6°F8.7°C 95% 2.3 mph WSW3.7 kmh WSW 4.6 mph7.4 kmh 30.16 in1021.3 mb - 0.02 in0.5 mm 0.17 in4.3 mm
04:20 AM 48.8°F9.3°C 47.4°F8.6°C 95% 2.3 mph SW3.7 kmh SW 10.4 mph16.7 kmh 30.15 in1021.0 mb - 0.02 in0.5 mm 0.20 in5.1 mm
04:30 AM 48.7°F9.3°C 47.3°F8.5°C 95% 4.6 mph SSW7.4 kmh SSW 6.9 mph11.1 kmh 30.15 in1021.0 mb - 0.02 in0.5 mm 0.21 in5.3 mm
04:40 AM 48.6°F9.2°C 47.2°F8.4°C 95% 2.3 mph W3.7 kmh W 4.6 mph7.4 kmh 30.14 in1020.7 mb - 0.02 in0.5 mm 0.21 in5.3 mm
04:50 AM 48.5°F9.2°C 47.1°F8.4°C 95% 4.6 mph WSW7.4 kmh WSW 4.6 mph7.4 kmh 30.14 in1020.7 mb - 0.00 in0.0 mm 0.21 in5.3 mm
05:00 AM 48.5°F9.2°C 47.1°F8.4°C 95% 2.3 mph SW3.7 kmh SW 5.8 mph9.3 kmh 30.14 in1020.7 mb - 0.00 in0.0 mm 0.21 in5.3 mm
05:10 AM 48.3°F9.1°C 47.0°F8.3°C 95% 5.8 mph SW9.3 kmh SW 10.4 mph16.7 kmh 30.14 in1020.7 mb - 0.00 in0.0 mm 0.21 in5.3 mm
05:20 AM 48.3°F9.1°C 46.9°F8.3°C 95% 6.9 mph SSW11.1 kmh SSW 8.1 mph13.0 kmh 30.14 in1020.7 mb - 0.00 in0.0 mm 0.21 in5.3 mm
05:30 AM 48.3°F9.1°C 46.9°F8.3°C 95% 2.3 mph SW3.7 kmh SW 5.8 mph9.3 kmh 30.14 in1020.7 mb - 0.00 in0.0 mm 0.21 in5.3 mm
05:40 AM 48.2°F9.0°C 46.8°F8.2°C 95% 3.5 mph W5.6 kmh W 5.8 mph9.3 kmh 30.14 in1020.7 mb - 0.00 in0.0 mm 0.21 in5.3 mm
05:50 AM 48.1°F8.9°C 46.7°F8.2°C 95% 2.3 mph SW3.7 kmh SW 5.8 mph9.3 kmh 30.14 in1020.7 mb - 0.00 in0.0 mm 0.21 in5.3 mm
06:00 AM 48.0°F8.9°C 46.7°F8.2°C 95% Calm Calm 3.5 mph5.6 kmh 30.13 in1020.3 mb - 0.00 in0.0 mm 0.21 in5.3 mm
06:10 AM 47.9°F8.8°C 46.6°F8.1°C 95% 3.5 mph SSW5.6 kmh SSW 3.5 mph5.6 kmh 30.12 in1020.0 mb - 0.00 in0.0 mm 0.21 in5.3 mm
06:20 AM 47.8°F8.8°C 46.5°F8.1°C 95% Calm Calm 2.3 mph3.7 kmh 30.12 in1020.0 mb - 0.00 in0.0 mm 0.21 in5.3 mm
06:30 AM 47.8°F8.8°C 46.4°F8.0°C 95% 4.6 mph SW7.4 kmh SW 9.2 mph14.8 kmh 30.12 in1020.0 mb - 0.00 in0.0 mm 0.21 in5.3 mm
06:40 AM 47.6°F8.7°C 46.2°F7.9°C 95% 2.3 mph WSW3.7 kmh WSW 4.6 mph7.4 kmh 30.12 in1020.0 mb - 0.00 in0.0 mm 0.21 in5.3 mm
06:50 AM 47.4°F8.6°C 46.0°F7.8°C 95% 5.8 mph SW9.3 kmh SW 8.1 mph13.0 kmh 30.12 in1020.0 mb - 0.00 in0.0 mm 0.21 in5.3 mm
07:00 AM 46.9°F8.3°C 45.5°F7.5°C 95% 4.6 mph SW7.4 kmh SW 5.8 mph9.3 kmh 30.12 in1020.0 mb - 0.01 in0.3 mm 0.22 in5.6 mm
07:10 AM 46.5°F8.1°C 45.1°F7.3°C 95% 1.1 mph WSW1.8 kmh WSW 3.5 mph5.6 kmh 30.12 in1020.0 mb - 0.00 in0.0 mm 0.22 in5.6 mm
07:20 AM 46.3°F7.9°C 44.9°F7.2°C 95% 1.1 mph NW1.8 kmh NW 2.3 mph3.7 kmh 30.12 in1020.0 mb - 0.00 in0.0 mm 0.22 in5.6 mm
07:30 AM 46.0°F7.8°C 44.6°F7.0°C 95% 1.1 mph WSW1.8 kmh WSW 1.1 mph1.8 kmh 30.12 in1020.0 mb - 0.01 in0.3 mm 0.23 in5.8 mm
07:40 AM 45.9°F7.7°C 44.5°F6.9°C 95% 2.3 mph WSW3.7 kmh WSW 4.6 mph7.4 kmh 30.13 in1020.3 mb - 0.01 in0.3 mm 0.24 in6.1 mm
07:50 AM 45.7°F7.6°C 44.4°F6.9°C 95% 2.3 mph SSW3.7 kmh SSW 3.5 mph5.6 kmh 30.13 in1020.3 mb - 0.02 in0.5 mm 0.25 in6.4 mm
08:00 AM 45.7°F7.6°C 44.3°F6.8°C 95% Calm Calm 1.1 mph1.8 kmh 30.13 in1020.3 mb - 0.02 in0.5 mm 0.27 in6.9 mm
08:10 AM 45.6°F7.6°C 44.3°F6.8°C 95% Calm Calm 2.3 mph3.7 kmh 30.13 in1020.3 mb - 0.03 in0.8 mm 0.29 in7.4 mm
08:20 AM 45.6°F7.6°C 44.3°F6.8°C 95% Calm Calm -- 30.14 in1020.7 mb - 0.02 in0.5 mm 0.31 in7.9 mm
08:30 AM 45.5°F7.5°C 44.2°F6.8°C 95% 2.3 mph SW3.7 kmh SW 4.6 mph7.4 kmh 30.14 in1020.7 mb - 0.03 in0.8 mm 0.33 in8.4 mm
08:40 AM 45.4°F7.4°C 44.0°F6.7°C 95% 4.6 mph SSW7.4 kmh SSW 9.2 mph14.8 kmh 30.13 in1020.3 mb - 0.03 in0.8 mm 0.35 in8.9 mm
08:50 AM 45.1°F7.3°C 43.8°F6.6°C 95% Calm Calm 1.1 mph1.8 kmh 30.13 in1020.3 mb - 0.00 in0.0 mm 0.35 in8.9 mm
09:00 AM 44.9°F7.2°C 43.5°F6.4°C 95% 2.3 mph WSW3.7 kmh WSW 2.3 mph3.7 kmh 30.14 in1020.7 mb - 0.02 in0.5 mm 0.37 in9.4 mm
09:10 AM 44.6°F7.0°C 43.2°F6.2°C 95% 1.1 mph WSW1.8 kmh WSW 4.6 mph7.4 kmh 30.14 in1020.7 mb - 0.02 in0.5 mm 0.39 in9.9 mm
09:30 AM 44.3°F6.8°C 43.0°F6.1°C 95% 3.5 mph SW5.6 kmh SW 3.5 mph5.6 kmh 30.14 in1020.7 mb - 0.00 in0.0 mm 0.40 in10.2 mm
09:40 AM 44.3°F6.8°C 43.0°F6.1°C 95% Calm Calm -- 30.15 in1021.0 mb - 0.00 in0.0 mm 0.40 in10.2 mm
09:50 AM 44.3°F6.8°C 42.9°F6.1°C 95% 1.1 mph WSW1.8 kmh WSW 2.3 mph3.7 kmh 30.15 in1021.0 mb - 0.01 in0.3 mm 0.41 in10.4 mm
10:00 AM 44.2°F6.8°C 42.9°F6.1°C 95% Calm Calm -- 30.15 in1021.0 mb - 0.01 in0.3 mm 0.42 in10.7 mm
10:10 AM 44.0°F6.7°C 42.7°F5.9°C 95% 1.1 mph WSW1.8 kmh WSW 1.1 mph1.8 kmh 30.15 in1021.0 mb - 0.00 in0.0 mm 0.42 in10.7 mm
10:20 AM 43.7°F6.5°C 42.4°F5.8°C 95% Calm Calm -- 30.15 in1021.0 mb - 0.00 in0.0 mm 0.42 in10.7 mm
10:30 AM 43.7°F6.5°C 42.4°F5.8°C 95% 2.3 mph WSW3.7 kmh WSW 2.3 mph3.7 kmh 30.15 in1021.0 mb - 0.00 in0.0 mm 0.42 in10.7 mm
10:40 AM 44.9°F7.2°C 43.9°F6.6°C 96% 4.6 mph SW7.4 kmh SW 5.8 mph9.3 kmh 30.15 in1021.0 mb - 0.00 in0.0 mm 0.42 in10.7 mm
10:50 AM 45.2°F7.3°C 43.9°F6.6°C 95% 3.5 mph SW5.6 kmh SW 4.6 mph7.4 kmh 30.15 in1021.0 mb - 0.00 in0.0 mm 0.42 in10.7 mm
11:00 AM 45.2°F7.3°C 43.9°F6.6°C 95% 4.6 mph SW7.4 kmh SW 5.8 mph9.3 kmh 30.15 in1021.0 mb - 0.00 in0.0 mm 0.42 in10.7 mm
11:10 AM 45.1°F7.3°C 43.8°F6.6°C 95% 5.8 mph SW9.3 kmh SW 6.9 mph11.1 kmh 30.16 in1021.3 mb - 0.00 in0.0 mm 0.42 in10.7 mm
11:20 AM 45.5°F7.5°C 44.4°F6.9°C 96% 4.6 mph WSW7.4 kmh WSW 4.6 mph7.4 kmh 30.16 in1021.3 mb - 0.00 in0.0 mm 0.42 in10.7 mm
11:30 AM 45.7°F7.6°C 44.4°F6.9°C 95% 4.6 mph SW7.4 kmh SW 5.8 mph9.3 kmh 30.16 in1021.3 mb - 0.00 in0.0 mm 0.42 in10.7 mm
11:40 AM 45.9°F7.7°C 44.5°F6.9°C 95% 3.5 mph SW5.6 kmh SW 3.5 mph5.6 kmh 30.16 in1021.3 mb - 0.00 in0.0 mm 0.42 in10.7 mm
11:50 AM 45.7°F7.6°C 44.4°F6.9°C 95% 2.3 mph WSW3.7 kmh WSW 6.9 mph11.1 kmh 30.16 in1021.3 mb - 0.00 in0.0 mm 0.42 in10.7 mm
12:00 PM 45.5°F7.5°C 44.2°F6.8°C 95% 2.3 mph SW3.7 kmh SW 3.5 mph5.6 kmh 30.16 in1021.3 mb - 0.00 in0.0 mm 0.42 in10.7 mm
12:10 PM 45.5°F7.5°C 44.1°F6.7°C 95% Calm Calm -- 30.17 in1021.7 mb - 0.00 in0.0 mm 0.42 in10.7 mm
12:20 PM 45.2°F7.3°C 43.9°F6.6°C 95% 3.5 mph NNE5.6 kmh NNE 3.5 mph5.6 kmh 30.16 in1021.3 mb - 0.00 in0.0 mm 0.42 in10.7 mm
12:30 PM 44.8°F7.1°C 43.5°F6.4°C 95% Calm Calm 1.1 mph1.8 kmh 30.16 in1021.3 mb - 0.01 in0.3 mm 0.43 in10.9 mm
12:40 PM 44.3°F6.8°C 43.0°F6.1°C 95% 1.1 mph SE1.8 kmh SE 3.5 mph5.6 kmh 30.17 in1021.7 mb - 0.01 in0.3 mm 0.43 in10.9 mm
12:50 PM 44.0°F6.7°C 42.7°F5.9°C 95% 2.3 mph SW3.7 kmh SW 4.6 mph7.4 kmh 30.18 in1022.0 mb - 0.00 in0.0 mm 0.43 in10.9 mm
01:00 PM 43.8°F6.6°C 42.5°F5.8°C 95% 1.1 mph SW1.8 kmh SW 2.3 mph3.7 kmh 30.18 in1022.0 mb - 0.02 in0.5 mm 0.45 in11.4 mm
01:10 PM 43.6°F6.4°C 42.3°F5.7°C 95% 2.3 mph N3.7 kmh N 4.6 mph7.4 kmh 30.18 in1022.0 mb - 0.00 in0.0 mm 0.45 in11.4 mm
01:20 PM 43.2°F6.2°C 41.6°F5.3°C 94% Calm Calm -- 30.18 in1022.0 mb - 0.02 in0.5 mm 0.47 in11.9 mm
01:30 PM 42.5°F5.8°C 40.9°F4.9°C 94% 1.1 mph SW1.8 kmh SW 3.5 mph5.6 kmh 30.18 in1022.0 mb - 0.02 in0.5 mm 0.48 in12.2 mm
01:40 PM 42.9°F6.1°C 41.3°F5.2°C 94% Calm Calm -- 30.18 in1022.0 mb - 0.00 in0.0 mm 0.48 in12.2 mm
01:50 PM 43.1°F6.2°C 41.5°F5.3°C 94% 6.9 mph W11.1 kmh W 11.5 mph18.5 kmh 30.19 in1022.4 mb - 0.02 in0.5 mm 0.50 in12.7 mm
02:00 PM 41.9°F5.5°C 40.0°F4.4°C 93% 1.1 mph N1.8 kmh N 3.5 mph5.6 kmh 30.18 in1022.0 mb - 0.04 in1.0 mm 0.53 in13.5 mm
02:10 PM 41.8°F5.4°C 39.9°F4.4°C 93% Calm Calm -- 30.18 in1022.0 mb - 0.01 in0.3 mm 0.54 in13.7 mm
02:20 PM 42.3°F5.7°C 40.7°F4.8°C 94% 4.6 mph SW7.4 kmh SW 5.8 mph9.3 kmh 30.18 in1022.0 mb - 0.01 in0.3 mm 0.54 in13.7 mm
02:30 PM 42.6°F5.9°C 40.7°F4.8°C 93% Calm Calm 3.5 mph5.6 kmh 30.18 in1022.0 mb - 0.00 in0.0 mm 0.54 in13.7 mm
02:40 PM 43.4°F6.3°C 41.8°F5.4°C 94% 2.3 mph SW3.7 kmh SW 3.5 mph5.6 kmh 30.17 in1021.7 mb - 0.00 in0.0 mm 0.54 in13.7 mm
02:50 PM 43.5°F6.4°C 41.6°F5.3°C 93% 3.5 mph SW5.6 kmh SW 4.6 mph7.4 kmh 30.17 in1021.7 mb - 0.00 in0.0 mm 0.54 in13.7 mm
03:00 PM 43.5°F6.4°C 41.6°F5.3°C 93% 2.3 mph SW3.7 kmh SW 3.5 mph5.6 kmh 30.17 in1021.7 mb - 0.00 in0.0 mm 0.54 in13.7 mm
03:10 PM 43.6°F6.4°C 41.7°F5.4°C 93% 3.5 mph SW5.6 kmh SW 3.5 mph5.6 kmh 30.18 in1022.0 mb - 0.00 in0.0 mm 0.54 in13.7 mm
03:20 PM 43.7°F6.5°C 41.8°F5.4°C 93% 1.1 mph SW1.8 kmh SW 2.3 mph3.7 kmh 30.18 in1022.0 mb - 0.00 in0.0 mm 0.54 in13.7 mm
03:30 PM 44.0°F6.7°C 42.1°F5.6°C 93% 1.1 mph SW1.8 kmh SW 1.1 mph1.8 kmh 30.18 in1022.0 mb - 0.00 in0.0 mm 0.54 in13.7 mm
03:40 PM 43.9°F6.6°C 42.1°F5.6°C 93% Calm Calm -- 30.17 in1021.7 mb - 0.00 in0.0 mm 0.54 in13.7 mm
03:50 PM 44.7°F7.1°C 41.9°F5.5°C 90% Calm Calm -- 30.18 in1022.0 mb - 0.00 in0.0 mm 0.54 in13.7 mm
04:00 PM 45.3°F7.4°C 42.0°F5.6°C 88% 1.1 mph W1.8 kmh W 2.3 mph3.7 kmh 30.18 in1022.0 mb - 0.00 in0.0 mm 0.54 in13.7 mm
04:10 PM 45.6°F7.6°C 42.0°F5.6°C 87% 4.6 mph SW7.4 kmh SW 5.8 mph9.3 kmh 30.18 in1022.0 mb - 0.00 in0.0 mm 0.54 in13.7 mm
04:20 PM 45.8°F7.7°C 42.4°F5.8°C 88% 1.1 mph WSW1.8 kmh WSW 2.3 mph3.7 kmh 30.19 in1022.4 mb - 0.00 in0.0 mm 0.54 in13.7 mm
04:30 PM 45.5°F7.5°C 41.9°F5.5°C 87% 3.5 mph SW5.6 kmh SW 8.1 mph13.0 kmh 30.19 in1022.4 mb - 0.00 in0.0 mm 0.54 in13.7 mm
04:40 PM 45.3°F7.4°C 41.1°F5.1°C 85% 4.6 mph WSW7.4 kmh WSW 5.8 mph9.3 kmh 30.19 in1022.4 mb - 0.00 in0.0 mm 0.54 in13.7 mm
04:50 PM 45.5°F7.5°C 41.0°F5.0°C 84% 1.1 mph SW1.8 kmh SW 5.8 mph9.3 kmh 30.19 in1022.4 mb - 0.00 in0.0 mm 0.54 in13.7 mm
05:00 PM 45.6°F7.6°C 40.8°F4.9°C 83% 1.1 mph SW1.8 kmh SW 4.6 mph7.4 kmh 30.19 in1022.4 mb - 0.00 in0.0 mm 0.54 in13.7 mm
05:10 PM 45.6°F7.6°C 40.4°F4.7°C 82% 2.3 mph W3.7 kmh W 4.6 mph7.4 kmh 30.20 in1022.7 mb - 0.00 in0.0 mm 0.54 in13.7 mm
05:20 PM 45.2°F7.3°C 39.7°F4.3°C 81% 2.3 mph WNW3.7 kmh WNW 5.8 mph9.3 kmh 30.20 in1022.7 mb - 0.00 in0.0 mm 0.54 in13.7 mm
05:30 PM 44.9°F7.2°C 39.4°F4.1°C 81% 2.3 mph W3.7 kmh W 3.5 mph5.6 kmh 30.21 in1023.0 mb - 0.00 in0.0 mm 0.54 in13.7 mm
05:40 PM 44.6°F7.0°C 39.4°F4.1°C 82% 1.1 mph E1.8 kmh E 3.5 mph5.6 kmh 30.21 in1023.0 mb - 0.00 in0.0 mm 0.54 in13.7 mm
05:50 PM 44.3°F6.8°C 39.1°F3.9°C 82% Calm Calm -- 30.22 in1023.4 mb - 0.00 in0.0 mm 0.54 in13.7 mm
06:00 PM 44.0°F6.7°C 38.9°F3.8°C 82% 1.1 mph NE1.8 kmh NE 3.5 mph5.6 kmh 30.22 in1023.4 mb - 0.00 in0.0 mm 0.54 in13.7 mm
06:10 PM 43.8°F6.6°C 38.7°F3.7°C 82% 1.1 mph WSW1.8 kmh WSW 5.8 mph9.3 kmh 30.23 in1023.7 mb - 0.00 in0.0 mm 0.54 in13.7 mm
06:20 PM 43.6°F6.4°C 38.1°F3.4°C 81% Calm Calm 1.1 mph1.8 kmh 30.23 in1023.7 mb - 0.00 in0.0 mm 0.54 in13.7 mm
06:30 PM 43.2°F6.2°C 37.7°F3.2°C 81% 4.6 mph SW7.4 kmh SW 5.8 mph9.3 kmh 30.23 in1023.7 mb - 0.00 in0.0 mm 0.54 in13.7 mm
06:40 PM 42.9°F6.1°C 37.5°F3.1°C 81% Calm Calm 2.3 mph3.7 kmh 30.23 in1023.7 mb - 0.00 in0.0 mm 0.54 in13.7 mm
06:50 PM 42.8°F6.0°C 37.6°F3.1°C 82% 8.1 mph ENE13.0 kmh ENE 10.4 mph16.7 kmh 30.25 in1024.4 mb - 0.00 in0.0 mm 0.54 in13.7 mm
07:00 PM 41.4°F5.2°C 37.0°F2.8°C 84% 8.1 mph NE13.0 kmh NE 9.2 mph14.8 kmh 30.26 in1024.7 mb - 0.00 in0.0 mm 0.54 in13.7 mm
07:10 PM 40.6°F4.8°C 36.7°F2.6°C 86% 3.5 mph ENE5.6 kmh ENE 5.8 mph9.3 kmh 30.26 in1024.7 mb - 0.01 in0.3 mm 0.55 in14.0 mm
07:20 PM 40.5°F4.7°C 37.2°F2.9°C 88% Calm Calm 2.3 mph3.7 kmh 30.27 in1025.1 mb - 0.00 in0.0 mm 0.55 in14.0 mm
07:30 PM 40.4°F4.7°C 37.1°F2.8°C 88% Calm Calm 1.1 mph1.8 kmh 30.27 in1025.1 mb - 0.00 in0.0 mm 0.55 in14.0 mm
07:40 PM 40.4°F4.7°C 37.4°F3.0°C 89% 1.1 mph N1.8 kmh N 2.3 mph3.7 kmh 30.27 in1025.1 mb - 0.00 in0.0 mm 0.55 in14.0 mm
07:50 PM 40.5°F4.7°C 37.5°F3.1°C 89% 3.5 mph NE5.6 kmh NE 4.6 mph7.4 kmh 30.27 in1025.1 mb - 0.01 in0.3 mm 0.56 in14.2 mm
08:00 PM 40.2°F4.6°C 37.2°F2.9°C 89% Calm Calm -- 30.27 in1025.1 mb - 0.00 in0.0 mm 0.56 in14.2 mm
08:10 PM 39.8°F4.3°C 36.8°F2.7°C 89% 1.1 mph NE1.8 kmh NE 3.5 mph5.6 kmh 30.28 in1025.4 mb - 0.00 in0.0 mm 0.56 in14.2 mm
08:20 PM 39.6°F4.2°C 36.6°F2.6°C 89% Calm Calm 1.1 mph1.8 kmh 30.28 in1025.4 mb - 0.00 in0.0 mm 0.56 in14.2 mm
08:30 PM 39.4°F4.1°C 36.7°F2.6°C 90% Calm Calm -- 30.28 in1025.4 mb - 0.00 in0.0 mm 0.56 in14.2 mm
08:40 PM 39.4°F4.1°C 36.7°F2.6°C 90% Calm Calm 1.1 mph1.8 kmh 30.28 in1025.4 mb - 0.00 in0.0 mm 0.56 in14.2 mm
08:50 PM 39.4°F4.1°C 36.7°F2.6°C 90% Calm Calm -- 30.28 in1025.4 mb - 0.00 in0.0 mm 0.56 in14.2 mm
09:00 PM 39.4°F4.1°C 36.7°F2.6°C 90% Calm Calm -- 30.28 in1025.4 mb - 0.00 in0.0 mm 0.56 in14.2 mm
09:10 PM 39.3°F4.1°C 36.6°F2.6°C 90% Calm Calm 1.1 mph1.8 kmh 30.28 in1025.4 mb - 0.00 in0.0 mm 0.56 in14.2 mm
09:20 PM 39.4°F4.1°C 37.0°F2.8°C 91% 1.1 mph NE1.8 kmh NE 2.3 mph3.7 kmh 30.28 in1025.4 mb - 0.00 in0.0 mm 0.56 in14.2 mm
09:30 PM 39.3°F4.1°C 36.9°F2.7°C 91% 5.8 mph NE9.3 kmh NE 6.9 mph11.1 kmh 30.29 in1025.7 mb - 0.00 in0.0 mm 0.56 in14.2 mm
09:40 PM 39.2°F4.0°C 36.8°F2.7°C 91% Calm Calm -- 30.29 in1025.7 mb - 0.00 in0.0 mm 0.56 in14.2 mm
09:50 PM 39.1°F3.9°C 36.7°F2.6°C 91% Calm Calm -- 30.29 in1025.7 mb - 0.00 in0.0 mm 0.56 in14.2 mm
10:00 PM 38.9°F3.8°C 36.8°F2.7°C 92% Calm Calm -- 30.29 in1025.7 mb - 0.00 in0.0 mm 0.56 in14.2 mm
10:10 PM 38.8°F3.8°C 36.7°F2.6°C 92% 1.1 mph WSW1.8 kmh WSW 2.3 mph3.7 kmh 30.29 in1025.7 mb - 0.00 in0.0 mm 0.56 in14.2 mm
10:20 PM 38.6°F3.7°C 36.5°F2.5°C 92% 2.3 mph NW3.7 kmh NW 2.3 mph3.7 kmh 30.30 in1026.1 mb - 0.00 in0.0 mm 0.56 in14.2 mm
10:30 PM 38.4°F3.6°C 36.3°F2.4°C 92% 5.8 mph SW9.3 kmh SW 8.1 mph13.0 kmh 30.29 in1025.7 mb - 0.00 in0.0 mm 0.56 in14.2 mm
10:40 PM 38.7°F3.7°C 36.6°F2.6°C 92% 2.3 mph WSW3.7 kmh WSW 3.5 mph5.6 kmh 30.30 in1026.1 mb - 0.00 in0.0 mm 0.56 in14.2 mm
10:50 PM 38.8°F3.8°C 36.7°F2.6°C 92% Calm Calm 1.1 mph1.8 kmh 30.30 in1026.1 mb - 0.00 in0.0 mm 0.56 in14.2 mm
11:00 PM 38.5°F3.6°C 36.4°F2.4°C 92% Calm Calm -- 30.30 in1026.1 mb - 0.00 in0.0 mm 0.56 in14.2 mm
11:10 PM 38.2°F3.4°C 36.1°F2.3°C 92% Calm Calm -- 30.30 in1026.1 mb - 0.00 in0.0 mm 0.56 in14.2 mm
11:20 PM 38.1°F3.4°C 36.0°F2.2°C 92% 1.1 mph NNW1.8 kmh NNW 1.1 mph1.8 kmh 30.30 in1026.1 mb - 0.00 in0.0 mm 0.56 in14.2 mm
11:30 PM 38.2°F3.4°C 36.3°F2.4°C 93% Calm Calm -- 30.30 in1026.1 mb - 0.00 in0.0 mm 0.56 in14.2 mm
11:40 PM 38.3°F3.5°C 36.5°F2.5°C 93% 5.8 mph N9.3 kmh N 5.8 mph9.3 kmh 30.31 in1026.4 mb - 0.00 in0.0 mm 0.56 in14.2 mm
11:50 PM 38.4°F3.6°C 36.6°F2.6°C 93% 4.6 mph SW7.4 kmh SW 5.8 mph9.3 kmh 30.31 in1026.4 mb - 0.00 in0.0 mm 0.56 in14.2 mm